sensor_id;sensor_type;location;lat;lon;timestamp;P1;durP1;ratioP1;P2;durP2;ratioP2
22070;SDS011;11200;51.488;6.668;2022-08-14T00:01:15;4.80;;;4.40;;
22070;SDS011;11200;51.488;6.668;2022-08-14T00:03:40;5.72;;;4.43;;
22070;SDS011;11200;51.488;6.668;2022-08-14T00:06:06;5.18;;;4.65;;
22070;SDS011;11200;51.488;6.668;2022-08-14T00:08:32;4.90;;;4.50;;
22070;SDS011;11200;51.488;6.668;2022-08-14T00:10:58;5.00;;;4.50;;
22070;SDS011;11200;51.488;6.668;2022-08-14T00:13:24;5.07;;;4.40;;
22070;SDS011;11200;51.488;6.668;2022-08-14T00:15:53;5.10;;;4.60;;
22070;SDS011;11200;51.488;6.668;2022-08-14T00:18:20;5.05;;;4.65;;
22070;SDS011;11200;51.488;6.668;2022-08-14T00:20:47;6.45;;;4.55;;
22070;SDS011;11200;51.488;6.668;2022-08-14T00:23:15;4.95;;;4.20;;
22070;SDS011;11200;51.488;6.668;2022-08-14T00:25:42;4.78;;;4.28;;
22070;SDS011;11200;51.488;6.668;2022-08-14T00:28:10;5.15;;;4.47;;
22070;SDS011;11200;51.488;6.668;2022-08-14T00:30:37;5.30;;;4.30;;
22070;SDS011;11200;51.488;6.668;2022-08-14T00:33:03;4.80;;;4.40;;
22070;SDS011;11200;51.488;6.668;2022-08-14T00:35:29;5.53;;;4.40;;
22070;SDS011;11200;51.488;6.668;2022-08-14T00:37:56;4.68;;;4.10;;
22070;SDS011;11200;51.488;6.668;2022-08-14T00:40:22;5.13;;;4.70;;
22070;SDS011;11200;51.488;6.668;2022-08-14T00:42:48;5.28;;;4.55;;
22070;SDS011;11200;51.488;6.668;2022-08-14T00:45:15;4.57;;;4.15;;
22070;SDS011;11200;51.488;6.668;2022-08-14T00:47:42;4.60;;;4.20;;
22070;SDS011;11200;51.488;6.668;2022-08-14T00:50:10;5.78;;;4.47;;
22070;SDS011;11200;51.488;6.668;2022-08-14T00:52:37;5.40;;;4.10;;
22070;SDS011;11200;51.488;6.668;2022-08-14T00:55:04;4.65;;;4.25;;
22070;SDS011;11200;51.488;6.668;2022-08-14T00:57:32;5.45;;;4.95;;
22070;SDS011;11200;51.488;6.668;2022-08-14T00:59:59;5.65;;;4.40;;
22070;SDS011;11200;51.488;6.668;2022-08-14T01:02:26;5.00;;;4.60;;
22070;SDS011;11200;51.488;6.668;2022-08-14T01:04:53;5.10;;;4.63;;
22070;SDS011;11200;51.488;6.668;2022-08-14T01:07:22;4.82;;;4.35;;
22070;SDS011;11200;51.488;6.668;2022-08-14T01:09:50;5.15;;;4.30;;
22070;SDS011;11200;51.488;6.668;2022-08-14T01:12:18;4.93;;;4.45;;
22070;SDS011;11200;51.488;6.668;2022-08-14T01:14:44;5.30;;;4.68;;
22070;SDS011;11200;51.488;6.668;2022-08-14T01:17:10;4.80;;;4.28;;
22070;SDS011;11200;51.488;6.668;2022-08-14T01:19:36;5.18;;;4.68;;
22070;SDS011;11200;51.488;6.668;2022-08-14T01:22:20;5.60;;;4.30;;
22070;SDS011;11200;51.488;6.668;2022-08-14T01:24:46;5.50;;;4.63;;
22070;SDS011;11200;51.488;6.668;2022-08-14T01:27:20;4.97;;;4.57;;
22070;SDS011;11200;51.488;6.668;2022-08-14T01:29:47;5.35;;;4.85;;
22070;SDS011;11200;51.488;6.668;2022-08-14T01:32:14;19.20;;;6.25;;
22070;SDS011;11200;51.488;6.668;2022-08-14T01:34:42;36.08;;;7.43;;
22070;SDS011;11200;51.488;6.668;2022-08-14T01:37:11;23.23;;;6.00;;
22070;SDS011;11200;51.488;6.668;2022-08-14T01:39:36;18.98;;;5.90;;
22070;SDS011;11200;51.488;6.668;2022-08-14T01:42:02;17.15;;;5.72;;
22070;SDS011;11200;51.488;6.668;2022-08-14T01:44:29;16.70;;;5.85;;
22070;SDS011;11200;51.488;6.668;2022-08-14T01:46:59;17.77;;;5.68;;
22070;SDS011;11200;51.488;6.668;2022-08-14T01:49:27;8.23;;;5.35;;
22070;SDS011;11200;51.488;6.668;2022-08-14T01:51:55;14.05;;;5.78;;
22070;SDS011;11200;51.488;6.668;2022-08-14T01:54:22;11.40;;;5.15;;
22070;SDS011;11200;51.488;6.668;2022-08-14T01:56:52;16.73;;;5.53;;
22070;SDS011;11200;51.488;6.668;2022-08-14T01:59:21;8.52;;;5.28;;
22070;SDS011;11200;51.488;6.668;2022-08-14T02:01:48;10.32;;;5.10;;
22070;SDS011;11200;51.488;6.668;2022-08-14T02:04:16;8.60;;;5.00;;
22070;SDS011;11200;51.488;6.668;2022-08-14T02:06:46;8.25;;;5.35;;
22070;SDS011;11200;51.488;6.668;2022-08-14T02:09:15;10.70;;;5.65;;
22070;SDS011;11200;51.488;6.668;2022-08-14T02:11:41;8.05;;;5.07;;
22070;SDS011;11200;51.488;6.668;2022-08-14T02:14:08;10.40;;;5.55;;
22070;SDS011;11200;51.488;6.668;2022-08-14T02:16:37;8.23;;;5.38;;
22070;SDS011;11200;51.488;6.668;2022-08-14T02:19:06;6.97;;;5.40;;
22070;SDS011;11200;51.488;6.668;2022-08-14T02:21:34;7.38;;;5.13;;
22070;SDS011;11200;51.488;6.668;2022-08-14T02:24:01;6.22;;;5.13;;
22070;SDS011;11200;51.488;6.668;2022-08-14T02:26:30;7.40;;;5.38;;
22070;SDS011;11200;51.488;6.668;2022-08-14T02:28:58;9.00;;;5.18;;
22070;SDS011;11200;51.488;6.668;2022-08-14T02:31:49;7.90;;;5.47;;
22070;SDS011;11200;51.488;6.668;2022-08-14T02:34:17;8.02;;;5.32;;
22070;SDS011;11200;51.488;6.668;2022-08-14T02:36:47;8.48;;;5.40;;
22070;SDS011;11200;51.488;6.668;2022-08-14T02:39:17;8.95;;;5.60;;
22070;SDS011;11200;51.488;6.668;2022-08-14T02:41:44;6.63;;;5.45;;
22070;SDS011;11200;51.488;6.668;2022-08-14T02:44:13;7.53;;;5.47;;
22070;SDS011;11200;51.488;6.668;2022-08-14T02:46:39;8.73;;;4.95;;
22070;SDS011;11200;51.488;6.668;2022-08-14T02:49:09;6.90;;;5.63;;
22070;SDS011;11200;51.488;6.668;2022-08-14T02:51:35;7.22;;;5.43;;
22070;SDS011;11200;51.488;6.668;2022-08-14T02:54:03;6.13;;;5.50;;
22070;SDS011;11200;51.488;6.668;2022-08-14T02:56:31;6.03;;;5.43;;
22070;SDS011;11200;51.488;6.668;2022-08-14T02:58:56;7.72;;;5.57;;
22070;SDS011;11200;51.488;6.668;2022-08-14T03:01:26;7.25;;;5.45;;
22070;SDS011;11200;51.488;6.668;2022-08-14T03:03:52;6.53;;;5.80;;
22070;SDS011;11200;51.488;6.668;2022-08-14T03:06:20;8.00;;;5.80;;
22070;SDS011;11200;51.488;6.668;2022-08-14T03:08:47;8.18;;;5.68;;
22070;SDS011;11200;51.488;6.668;2022-08-14T03:11:13;6.97;;;5.68;;
22070;SDS011;11200;51.488;6.668;2022-08-14T03:13:40;7.72;;;5.97;;
22070;SDS011;11200;51.488;6.668;2022-08-14T03:16:09;6.10;;;5.50;;
22070;SDS011;11200;51.488;6.668;2022-08-14T03:18:38;6.57;;;5.93;;
22070;SDS011;11200;51.488;6.668;2022-08-14T03:21:06;7.70;;;5.93;;
22070;SDS011;11200;51.488;6.668;2022-08-14T03:23:34;6.45;;;5.85;;
22070;SDS011;11200;51.488;6.668;2022-08-14T03:26:00;7.07;;;5.88;;
22070;SDS011;11200;51.488;6.668;2022-08-14T03:28:27;7.88;;;6.35;;
22070;SDS011;11200;51.488;6.668;2022-08-14T03:30:54;7.28;;;5.90;;
22070;SDS011;11200;51.488;6.668;2022-08-14T03:33:21;8.52;;;6.00;;
22070;SDS011;11200;51.488;6.668;2022-08-14T03:35:47;7.38;;;6.22;;
22070;SDS011;11200;51.488;6.668;2022-08-14T03:38:13;6.57;;;5.97;;
22070;SDS011;11200;51.488;6.668;2022-08-14T03:40:41;6.97;;;6.25;;
22070;SDS011;11200;51.488;6.668;2022-08-14T03:43:07;7.32;;;6.30;;
22070;SDS011;11200;51.488;6.668;2022-08-14T03:45:34;6.72;;;6.00;;
22070;SDS011;11200;51.488;6.668;2022-08-14T03:48:09;7.63;;;6.15;;
22070;SDS011;11200;51.488;6.668;2022-08-14T03:50:43;6.70;;;6.10;;
22070;SDS011;11200;51.488;6.668;2022-08-14T03:53:11;6.95;;;6.28;;
22070;SDS011;11200;51.488;6.668;2022-08-14T03:55:38;7.22;;;6.50;;
22070;SDS011;11200;51.488;6.668;2022-08-14T03:58:04;7.88;;;6.20;;
22070;SDS011;11200;51.488;6.668;2022-08-14T04:00:31;6.68;;;5.97;;
22070;SDS011;11200;51.488;6.668;2022-08-14T04:02:57;7.35;;;6.22;;
22070;SDS011;11200;51.488;6.668;2022-08-14T04:05:23;7.22;;;6.40;;
22070;SDS011;11200;51.488;6.668;2022-08-14T04:07:49;7.80;;;6.40;;
22070;SDS011;11200;51.488;6.668;2022-08-14T04:10:15;6.60;;;5.93;;
22070;SDS011;11200;51.488;6.668;2022-08-14T04:12:41;7.63;;;6.28;;
22070;SDS011;11200;51.488;6.668;2022-08-14T04:15:07;6.80;;;6.15;;
22070;SDS011;11200;51.488;6.668;2022-08-14T04:17:34;7.35;;;6.65;;
22070;SDS011;11200;51.488;6.668;2022-08-14T04:19:59;8.65;;;6.43;;
22070;SDS011;11200;51.488;6.668;2022-08-14T04:22:28;7.90;;;6.35;;
22070;SDS011;11200;51.488;6.668;2022-08-14T04:24:55;6.47;;;5.88;;
22070;SDS011;11200;51.488;6.668;2022-08-14T04:27:22;7.85;;;6.28;;
22070;SDS011;11200;51.488;6.668;2022-08-14T04:29:48;7.80;;;6.88;;
22070;SDS011;11200;51.488;6.668;2022-08-14T04:32:13;7.47;;;6.53;;
22070;SDS011;11200;51.488;6.668;2022-08-14T04:34:39;7.50;;;6.03;;
22070;SDS011;11200;51.488;6.668;2022-08-14T04:37:06;8.30;;;6.45;;
22070;SDS011;11200;51.488;6.668;2022-08-14T04:39:51;7.35;;;6.50;;
22070;SDS011;11200;51.488;6.668;2022-08-14T04:42:36;7.18;;;6.47;;
22070;SDS011;11200;51.488;6.668;2022-08-14T04:45:21;7.85;;;6.50;;
22070;SDS011;11200;51.488;6.668;2022-08-14T04:47:48;7.43;;;6.68;;
22070;SDS011;11200;51.488;6.668;2022-08-14T04:50:33;7.03;;;6.32;;
22070;SDS011;11200;51.488;6.668;2022-08-14T04:52:59;7.65;;;6.35;;
22070;SDS011;11200;51.488;6.668;2022-08-14T04:55:26;7.15;;;6.40;;
22070;SDS011;11200;51.488;6.668;2022-08-14T04:57:51;7.20;;;6.50;;
22070;SDS011;11200;51.488;6.668;2022-08-14T05:00:17;7.00;;;6.30;;
22070;SDS011;11200;51.488;6.668;2022-08-14T05:02:42;7.10;;;6.40;;
22070;SDS011;11200;51.488;6.668;2022-08-14T05:05:08;7.32;;;6.63;;
22070;SDS011;11200;51.488;6.668;2022-08-14T05:07:34;7.50;;;6.53;;
22070;SDS011;11200;51.488;6.668;2022-08-14T05:09:59;7.57;;;6.18;;
22070;SDS011;11200;51.488;6.668;2022-08-14T05:12:26;6.93;;;6.32;;
22070;SDS011;11200;51.488;6.668;2022-08-14T05:14:52;8.43;;;6.82;;
22070;SDS011;11200;51.488;6.668;2022-08-14T05:17:18;6.75;;;6.10;;
22070;SDS011;11200;51.488;6.668;2022-08-14T05:19:45;7.18;;;6.47;;
22070;SDS011;11200;51.488;6.668;2022-08-14T05:22:11;7.70;;;6.85;;
22070;SDS011;11200;51.488;6.668;2022-08-14T05:24:37;7.45;;;6.70;;
22070;SDS011;11200;51.488;6.668;2022-08-14T05:27:02;6.93;;;6.22;;
22070;SDS011;11200;51.488;6.668;2022-08-14T05:29:28;8.25;;;6.40;;
22070;SDS011;11200;51.488;6.668;2022-08-14T05:31:55;7.70;;;6.55;;
22070;SDS011;11200;51.488;6.668;2022-08-14T05:34:21;7.28;;;6.57;;
22070;SDS011;11200;51.488;6.668;2022-08-14T05:36:47;7.75;;;6.53;;
22070;SDS011;11200;51.488;6.668;2022-08-14T05:39:13;7.80;;;6.45;;
22070;SDS011;11200;51.488;6.668;2022-08-14T05:41:39;9.38;;;7.03;;
22070;SDS011;11200;51.488;6.668;2022-08-14T05:44:05;7.45;;;6.70;;
22070;SDS011;11200;51.488;6.668;2022-08-14T05:46:30;7.60;;;6.90;;
22070;SDS011;11200;51.488;6.668;2022-08-14T05:48:56;8.60;;;6.78;;
22070;SDS011;11200;51.488;6.668;2022-08-14T05:51:23;7.38;;;6.55;;
22070;SDS011;11200;51.488;6.668;2022-08-14T05:53:49;7.50;;;6.80;;
22070;SDS011;11200;51.488;6.668;2022-08-14T05:56:15;7.80;;;7.05;;
22070;SDS011;11200;51.488;6.668;2022-08-14T05:58:40;7.65;;;6.95;;
22070;SDS011;11200;51.488;6.668;2022-08-14T06:01:06;7.28;;;6.50;;
22070;SDS011;11200;51.488;6.668;2022-08-14T06:03:33;8.15;;;7.18;;
22070;SDS011;11200;51.488;6.668;2022-08-14T06:05:59;7.65;;;6.95;;
22070;SDS011;11200;51.488;6.668;2022-08-14T06:08:26;7.07;;;6.30;;
22070;SDS011;11200;51.488;6.668;2022-08-14T06:10:58;7.93;;;7.13;;
22070;SDS011;11200;51.488;6.668;2022-08-14T06:13:37;7.25;;;6.55;;
22070;SDS011;11200;51.488;6.668;2022-08-14T06:16:05;7.45;;;6.68;;
22070;SDS011;11200;51.488;6.668;2022-08-14T06:18:31;7.10;;;6.50;;
22070;SDS011;11200;51.488;6.668;2022-08-14T06:20:59;7.15;;;6.45;;
22070;SDS011;11200;51.488;6.668;2022-08-14T06:23:25;7.55;;;6.85;;
22070;SDS011;11200;51.488;6.668;2022-08-14T06:25:51;7.55;;;6.85;;
22070;SDS011;11200;51.488;6.668;2022-08-14T06:28:17;7.60;;;6.90;;
22070;SDS011;11200;51.488;6.668;2022-08-14T06:30:48;8.20;;;6.55;;
22070;SDS011;11200;51.488;6.668;2022-08-14T06:33:14;7.70;;;7.00;;
22070;SDS011;11200;51.488;6.668;2022-08-14T06:35:41;8.60;;;6.53;;
22070;SDS011;11200;51.488;6.668;2022-08-14T06:38:07;7.00;;;6.30;;
22070;SDS011;11200;51.488;6.668;2022-08-14T06:40:38;8.52;;;6.50;;
22070;SDS011;11200;51.488;6.668;2022-08-14T06:43:05;7.63;;;6.93;;
22070;SDS011;11200;51.488;6.668;2022-08-14T06:45:33;8.13;;;7.00;;
22070;SDS011;11200;51.488;6.668;2022-08-14T06:48:03;7.25;;;6.55;;
22070;SDS011;11200;51.488;6.668;2022-08-14T06:50:30;8.25;;;7.45;;
22070;SDS011;11200;51.488;6.668;2022-08-14T06:52:56;8.45;;;7.20;;
22070;SDS011;11200;51.488;6.668;2022-08-14T06:55:22;7.45;;;6.75;;
22070;SDS011;11200;51.488;6.668;2022-08-14T06:57:49;7.95;;;7.15;;
22070;SDS011;11200;51.488;6.668;2022-08-14T07:00:19;8.20;;;7.40;;
22070;SDS011;11200;51.488;6.668;2022-08-14T07:02:47;7.72;;;7.07;;
22070;SDS011;11200;51.488;6.668;2022-08-14T07:05:32;9.55;;;7.20;;
22070;SDS011;11200;51.488;6.668;2022-08-14T07:08:17;8.18;;;7.38;;
22070;SDS011;11200;51.488;6.668;2022-08-14T07:10:47;8.75;;;7.50;;
22070;SDS011;11200;51.488;6.668;2022-08-14T07:13:14;8.20;;;7.40;;
22070;SDS011;11200;51.488;6.668;2022-08-14T07:15:42;8.25;;;7.45;;
22070;SDS011;11200;51.488;6.668;2022-08-14T07:18:14;8.80;;;7.55;;
22070;SDS011;11200;51.488;6.668;2022-08-14T07:20:47;8.43;;;7.45;;
22070;SDS011;11200;51.488;6.668;2022-08-14T07:23:14;7.95;;;7.15;;
22070;SDS011;11200;51.488;6.668;2022-08-14T07:25:40;8.38;;;7.60;;
22070;SDS011;11200;51.488;6.668;2022-08-14T07:28:10;8.05;;;7.25;;
22070;SDS011;11200;51.488;6.668;2022-08-14T07:30:41;7.97;;;7.20;;
22070;SDS011;11200;51.488;6.668;2022-08-14T07:33:07;8.07;;;7.28;;
22070;SDS011;11200;51.488;6.668;2022-08-14T07:35:33;8.30;;;7.40;;
22070;SDS011;11200;51.488;6.668;2022-08-14T07:38:00;7.95;;;7.15;;
22070;SDS011;11200;51.488;6.668;2022-08-14T07:40:26;8.05;;;7.25;;
22070;SDS011;11200;51.488;6.668;2022-08-14T07:42:52;7.88;;;7.20;;
22070;SDS011;11200;51.488;6.668;2022-08-14T07:45:17;8.40;;;7.53;;
22070;SDS011;11200;51.488;6.668;2022-08-14T07:47:43;8.35;;;7.53;;
22070;SDS011;11200;51.488;6.668;2022-08-14T07:50:16;7.90;;;7.10;;
22070;SDS011;11200;51.488;6.668;2022-08-14T07:52:43;8.90;;;7.38;;
22070;SDS011;11200;51.488;6.668;2022-08-14T07:55:11;8.77;;;7.88;;
22070;SDS011;11200;51.488;6.668;2022-08-14T07:57:41;9.18;;;6.82;;
22070;SDS011;11200;51.488;6.668;2022-08-14T08:00:10;7.63;;;6.93;;
22070;SDS011;11200;51.488;6.668;2022-08-14T08:02:41;8.02;;;7.22;;
22070;SDS011;11200;51.488;6.668;2022-08-14T08:05:10;8.55;;;7.65;;
22070;SDS011;11200;51.488;6.668;2022-08-14T08:07:37;8.00;;;7.30;;
22070;SDS011;11200;51.488;6.668;2022-08-14T08:10:06;8.30;;;7.50;;
22070;SDS011;11200;51.488;6.668;2022-08-14T08:12:58;7.88;;;7.10;;
22070;SDS011;11200;51.488;6.668;2022-08-14T08:15:24;8.80;;;7.20;;
22070;SDS011;11200;51.488;6.668;2022-08-14T08:17:51;7.68;;;6.97;;
22070;SDS011;11200;51.488;6.668;2022-08-14T08:20:21;7.80;;;7.00;;
22070;SDS011;11200;51.488;6.668;2022-08-14T08:22:50;8.65;;;6.97;;
22070;SDS011;11200;51.488;6.668;2022-08-14T08:25:17;8.00;;;7.30;;
22070;SDS011;11200;51.488;6.668;2022-08-14T08:27:53;7.72;;;7.03;;
22070;SDS011;11200;51.488;6.668;2022-08-14T08:30:23;7.93;;;7.22;;
22070;SDS011;11200;51.488;6.668;2022-08-14T08:32:50;7.63;;;6.93;;
22070;SDS011;11200;51.488;6.668;2022-08-14T08:35:18;8.00;;;7.30;;
22070;SDS011;11200;51.488;6.668;2022-08-14T08:37:50;7.32;;;6.63;;
22070;SDS011;11200;51.488;6.668;2022-08-14T08:40:21;8.25;;;7.45;;
22070;SDS011;11200;51.488;6.668;2022-08-14T08:42:51;7.80;;;7.10;;
22070;SDS011;11200;51.488;6.668;2022-08-14T08:45:17;7.57;;;6.85;;
22070;SDS011;11200;51.488;6.668;2022-08-14T08:47:44;7.18;;;6.57;;
22070;SDS011;11200;51.488;6.668;2022-08-14T08:50:25;7.57;;;6.97;;
22070;SDS011;11200;51.488;6.668;2022-08-14T08:52:54;7.55;;;6.82;;
22070;SDS011;11200;51.488;6.668;2022-08-14T08:58:02;7.10;;;6.50;;
22070;SDS011;11200;51.488;6.668;2022-08-14T09:00:30;7.53;;;6.82;;
22070;SDS011;11200;51.488;6.668;2022-08-14T09:03:05;7.28;;;6.68;;
22070;SDS011;11200;51.488;6.668;2022-08-14T09:05:37;7.57;;;6.97;;
22070;SDS011;11200;51.488;6.668;2022-08-14T09:10:43;7.13;;;6.53;;
22070;SDS011;11200;51.488;6.668;2022-08-14T09:13:09;7.03;;;6.43;;
22070;SDS011;11200;51.488;6.668;2022-08-14T09:15:46;7.43;;;6.82;;
22070;SDS011;11200;51.488;6.668;2022-08-14T09:18:14;7.03;;;6.43;;
22070;SDS011;11200;51.488;6.668;2022-08-14T09:20:41;6.90;;;6.30;;
22070;SDS011;11200;51.488;6.668;2022-08-14T09:23:09;6.95;;;6.35;;
22070;SDS011;11200;51.488;6.668;2022-08-14T09:25:36;7.47;;;6.78;;
22070;SDS011;11200;51.488;6.668;2022-08-14T09:28:03;6.75;;;6.18;;
22070;SDS011;11200;51.488;6.668;2022-08-14T09:30:30;6.72;;;6.10;;
22070;SDS011;11200;51.488;6.668;2022-08-14T09:38:45;7.18;;;6.47;;
22070;SDS011;11200;51.488;6.668;2022-08-14T09:44:07;7.20;;;6.50;;
22070;SDS011;11200;51.488;6.668;2022-08-14T09:46:50;6.70;;;6.10;;
22070;SDS011;11200;51.488;6.668;2022-08-14T09:49:17;6.70;;;6.10;;
22070;SDS011;11200;51.488;6.668;2022-08-14T09:52:02;6.70;;;6.10;;
22070;SDS011;11200;51.488;6.668;2022-08-14T09:54:44;6.47;;;5.95;;
22070;SDS011;11200;51.488;6.668;2022-08-14T09:57:27;6.90;;;6.30;;
22070;SDS011;11200;51.488;6.668;2022-08-14T09:59:54;6.10;;;5.60;;
22070;SDS011;11200;51.488;6.668;2022-08-14T10:02:24;6.28;;;5.78;;
22070;SDS011;11200;51.488;6.668;2022-08-14T10:04:58;6.63;;;6.03;;
22070;SDS011;11200;51.488;6.668;2022-08-14T10:07:45;6.10;;;5.53;;
22070;SDS011;11200;51.488;6.668;2022-08-14T10:10:26;6.43;;;5.93;;
22070;SDS011;11200;51.488;6.668;2022-08-14T10:12:57;6.00;;;5.50;;
22070;SDS011;11200;51.488;6.668;2022-08-14T10:15:26;5.90;;;5.40;;
22070;SDS011;11200;51.488;6.668;2022-08-14T10:20:32;6.18;;;5.68;;
22070;SDS011;11200;51.488;6.668;2022-08-14T10:23:12;5.90;;;5.50;;
22070;SDS011;11200;51.488;6.668;2022-08-14T10:25:44;5.72;;;5.32;;
22070;SDS011;11200;51.488;6.668;2022-08-14T10:28:15;5.60;;;5.10;;
22070;SDS011;11200;51.488;6.668;2022-08-14T10:30:43;5.40;;;5.00;;
22070;SDS011;11200;51.488;6.668;2022-08-14T10:33:27;5.60;;;5.10;;
22070;SDS011;11200;51.488;6.668;2022-08-14T10:35:54;5.55;;;5.15;;
22070;SDS011;11200;51.488;6.668;2022-08-14T10:38:39;5.85;;;5.22;;
22070;SDS011;11200;51.488;6.668;2022-08-14T10:41:47;6.10;;;5.47;;
22070;SDS011;11200;51.488;6.668;2022-08-14T10:44:23;5.85;;;5.28;;
22070;SDS011;11200;51.488;6.668;2022-08-14T10:47:03;5.20;;;4.78;;
22070;SDS011;11200;51.488;6.668;2022-08-14T10:49:34;5.30;;;4.88;;
22070;SDS011;11200;51.488;6.668;2022-08-14T10:52:05;5.60;;;5.10;;
22070;SDS011;11200;51.488;6.668;2022-08-14T10:57:16;6.03;;;5.43;;
22070;SDS011;11200;51.488;6.668;2022-08-14T10:59:50;7.10;;;5.35;;
22070;SDS011;11200;51.488;6.668;2022-08-14T11:05:05;5.55;;;5.05;;
22070;SDS011;11200;51.488;6.668;2022-08-14T11:07:32;5.30;;;4.80;;
22070;SDS011;11200;51.488;6.668;2022-08-14T11:10:08;5.50;;;5.00;;
22070;SDS011;11200;51.488;6.668;2022-08-14T11:15:30;5.00;;;4.60;;
22070;SDS011;11200;51.488;6.668;2022-08-14T11:17:55;5.53;;;5.05;;
22070;SDS011;11200;51.488;6.668;2022-08-14T11:20:22;5.30;;;4.90;;
22070;SDS011;11200;51.488;6.668;2022-08-14T11:22:50;5.05;;;4.65;;
22070;SDS011;11200;51.488;6.668;2022-08-14T11:25:18;5.00;;;4.60;;
22070;SDS011;11200;51.488;6.668;2022-08-14T11:27:48;5.07;;;4.57;;
22070;SDS011;11200;51.488;6.668;2022-08-14T11:30:18;4.78;;;4.30;;
22070;SDS011;11200;51.488;6.668;2022-08-14T11:32:47;5.22;;;4.75;;
22070;SDS011;11200;51.488;6.668;2022-08-14T11:35:19;4.57;;;4.28;;
22070;SDS011;11200;51.488;6.668;2022-08-14T11:40:26;5.53;;;4.40;;
22070;SDS011;11200;51.488;6.668;2022-08-14T11:42:58;5.18;;;4.78;;
22070;SDS011;11200;51.488;6.668;2022-08-14T11:45:26;4.50;;;4.20;;
22070;SDS011;11200;51.488;6.668;2022-08-14T11:47:57;5.82;;;4.53;;
22070;SDS011;11200;51.488;6.668;2022-08-14T11:50:27;4.68;;;4.28;;
22070;SDS011;11200;51.488;6.668;2022-08-14T11:52:54;4.70;;;4.30;;
22070;SDS011;11200;51.488;6.668;2022-08-14T11:55:21;4.38;;;3.92;;
22070;SDS011;11200;51.488;6.668;2022-08-14T11:57:57;4.65;;;4.25;;
22070;SDS011;11200;51.488;6.668;2022-08-14T12:00:25;4.28;;;3.97;;
22070;SDS011;11200;51.488;6.668;2022-08-14T12:02:53;4.43;;;4.07;;
22070;SDS011;11200;51.488;6.668;2022-08-14T12:05:28;4.78;;;4.43;;
22070;SDS011;11200;51.488;6.668;2022-08-14T12:07:59;4.85;;;4.45;;
22070;SDS011;11200;51.488;6.668;2022-08-14T12:10:26;4.72;;;4.32;;
22070;SDS011;11200;51.488;6.668;2022-08-14T12:12:53;4.38;;;4.07;;
22070;SDS011;11200;51.488;6.668;2022-08-14T12:15:31;4.75;;;4.45;;
22070;SDS011;11200;51.488;6.668;2022-08-14T12:17:58;4.22;;;3.92;;
22070;SDS011;11200;51.488;6.668;2022-08-14T12:20:28;4.75;;;4.30;;
22070;SDS011;11200;51.488;6.668;2022-08-14T12:22:56;5.28;;;4.00;;
22070;SDS011;11200;51.488;6.668;2022-08-14T12:25:25;4.38;;;3.97;;
22070;SDS011;11200;51.488;6.668;2022-08-14T12:27:52;4.32;;;4.03;;
22070;SDS011;11200;51.488;6.668;2022-08-14T12:32:53;4.90;;;4.50;;
22070;SDS011;11200;51.488;6.668;2022-08-14T12:35:20;4.47;;;4.18;;
22070;SDS011;11200;51.488;6.668;2022-08-14T12:37:48;4.15;;;3.70;;
22070;SDS011;11200;51.488;6.668;2022-08-14T12:40:15;4.72;;;4.32;;
22070;SDS011;11200;51.488;6.668;2022-08-14T12:42:42;4.80;;;4.32;;
22070;SDS011;11200;51.488;6.668;2022-08-14T12:45:09;4.47;;;4.05;;
22070;SDS011;11200;51.488;6.668;2022-08-14T12:47:37;4.85;;;4.40;;
22070;SDS011;11200;51.488;6.668;2022-08-14T12:50:07;4.78;;;4.20;;
22070;SDS011;11200;51.488;6.668;2022-08-14T12:52:38;4.10;;;3.80;;
22070;SDS011;11200;51.488;6.668;2022-08-14T12:55:06;4.20;;;3.90;;
22070;SDS011;11200;51.488;6.668;2022-08-14T13:00:10;4.40;;;4.00;;
22070;SDS011;11200;51.488;6.668;2022-08-14T13:02:43;4.60;;;4.30;;
22070;SDS011;11200;51.488;6.668;2022-08-14T13:05:11;4.38;;;3.97;;
22070;SDS011;11200;51.488;6.668;2022-08-14T13:07:39;4.43;;;4.13;;
22070;SDS011;11200;51.488;6.668;2022-08-14T13:10:07;4.15;;;3.85;;
22070;SDS011;11200;51.488;6.668;2022-08-14T13:12:36;4.22;;;3.92;;
22070;SDS011;11200;51.488;6.668;2022-08-14T13:15:03;4.15;;;3.85;;
22070;SDS011;11200;51.488;6.668;2022-08-14T13:17:31;4.57;;;4.18;;
22070;SDS011;11200;51.488;6.668;2022-08-14T13:20:06;4.50;;;4.20;;
22070;SDS011;11200;51.488;6.668;2022-08-14T13:22:34;4.35;;;4.05;;
22070;SDS011;11200;51.488;6.668;2022-08-14T13:25:02;4.80;;;4.40;;
22070;SDS011;11200;51.488;6.668;2022-08-14T13:27:28;4.45;;;4.03;;
22070;SDS011;11200;51.488;6.668;2022-08-14T13:29:57;4.65;;;4.20;;
22070;SDS011;11200;51.488;6.668;2022-08-14T13:32:25;4.60;;;4.20;;
22070;SDS011;11200;51.488;6.668;2022-08-14T13:34:54;4.30;;;4.00;;
22070;SDS011;11200;51.488;6.668;2022-08-14T13:37:22;4.60;;;4.30;;
22070;SDS011;11200;51.488;6.668;2022-08-14T13:39:50;5.28;;;4.88;;
22070;SDS011;11200;51.488;6.668;2022-08-14T13:42:17;4.88;;;4.50;;
22070;SDS011;11200;51.488;6.668;2022-08-14T13:44:51;4.60;;;4.30;;
22070;SDS011;11200;51.488;6.668;2022-08-14T13:47:19;4.57;;;4.22;;
22070;SDS011;11200;51.488;6.668;2022-08-14T13:49:46;4.95;;;4.55;;
22070;SDS011;11200;51.488;6.668;2022-08-14T13:52:12;4.80;;;4.40;;
22070;SDS011;11200;51.488;6.668;2022-08-14T13:54:49;4.95;;;4.55;;
22070;SDS011;11200;51.488;6.668;2022-08-14T13:57:17;4.90;;;4.40;;
22070;SDS011;11200;51.488;6.668;2022-08-14T13:59:44;5.20;;;4.70;;
22070;SDS011;11200;51.488;6.668;2022-08-14T14:02:12;4.75;;;4.38;;
22070;SDS011;11200;51.488;6.668;2022-08-14T14:04:48;4.43;;;4.13;;
22070;SDS011;11200;51.488;6.668;2022-08-14T14:07:19;4.68;;;4.32;;
22070;SDS011;11200;51.488;6.668;2022-08-14T14:09:46;4.78;;;4.38;;
22070;SDS011;11200;51.488;6.668;2022-08-14T14:12:13;4.75;;;4.40;;
22070;SDS011;11200;51.488;6.668;2022-08-14T14:14:40;4.82;;;4.53;;
22070;SDS011;11200;51.488;6.668;2022-08-14T14:17:08;4.30;;;4.00;;
22070;SDS011;11200;51.488;6.668;2022-08-14T14:19:42;4.75;;;4.35;;
22070;SDS011;11200;51.488;6.668;2022-08-14T14:22:11;4.60;;;4.30;;
22070;SDS011;11200;51.488;6.668;2022-08-14T14:24:48;4.53;;;4.15;;
22070;SDS011;11200;51.488;6.668;2022-08-14T14:27:13;4.53;;;4.13;;
22070;SDS011;11200;51.488;6.668;2022-08-14T14:29:41;4.57;;;4.28;;
22070;SDS011;11200;51.488;6.668;2022-08-14T14:32:11;4.82;;;4.43;;
22070;SDS011;11200;51.488;6.668;2022-08-14T14:34:38;4.57;;;4.22;;
22070;SDS011;11200;51.488;6.668;2022-08-14T14:37:05;4.50;;;4.20;;
22070;SDS011;11200;51.488;6.668;2022-08-14T14:39:35;4.50;;;4.20;;
22070;SDS011;11200;51.488;6.668;2022-08-14T14:42:01;4.78;;;4.38;;
22070;SDS011;11200;51.488;6.668;2022-08-14T14:44:32;4.68;;;4.38;;
22070;SDS011;11200;51.488;6.668;2022-08-14T14:47:10;4.50;;;4.20;;
22070;SDS011;11200;51.488;6.668;2022-08-14T14:49:37;4.88;;;4.47;;
22070;SDS011;11200;51.488;6.668;2022-08-14T14:52:05;4.53;;;4.18;;
22070;SDS011;11200;51.488;6.668;2022-08-14T14:54:32;4.30;;;4.00;;
22070;SDS011;11200;51.488;6.668;2022-08-14T14:56:59;4.72;;;4.32;;
22070;SDS011;11200;51.488;6.668;2022-08-14T14:59:25;4.47;;;4.18;;
22070;SDS011;11200;51.488;6.668;2022-08-14T15:01:52;4.45;;;4.10;;
22070;SDS011;11200;51.488;6.668;2022-08-14T15:04:21;4.40;;;4.00;;
22070;SDS011;11200;51.488;6.668;2022-08-14T15:06:48;4.20;;;3.90;;
22070;SDS011;11200;51.488;6.668;2022-08-14T15:09:14;4.78;;;4.25;;
22070;SDS011;11200;51.488;6.668;2022-08-14T15:11:40;4.30;;;4.00;;
22070;SDS011;11200;51.488;6.668;2022-08-14T15:14:05;4.10;;;3.80;;
22070;SDS011;11200;51.488;6.668;2022-08-14T15:16:31;4.50;;;4.10;;
22070;SDS011;11200;51.488;6.668;2022-08-14T15:18:57;4.30;;;4.00;;
22070;SDS011;11200;51.488;6.668;2022-08-14T15:21:23;4.80;;;4.40;;
22070;SDS011;11200;51.488;6.668;2022-08-14T15:23:48;4.10;;;3.80;;
22070;SDS011;11200;51.488;6.668;2022-08-14T15:26:16;4.88;;;4.47;;
22070;SDS011;11200;51.488;6.668;2022-08-14T15:28:41;4.68;;;4.28;;
22070;SDS011;11200;51.488;6.668;2022-08-14T15:31:08;4.43;;;4.10;;